createdAt,value
2019-01-21T00:00:56.503Z,38.46
2019-01-21T00:03:24.790Z,38.80
2019-01-21T00:05:52.892Z,38.74
2019-01-21T00:08:20.851Z,38.54
2019-01-21T00:10:49.332Z,38.71
2019-01-21T00:13:17.623Z,39.31
2019-01-21T00:15:46.032Z,39.08
2019-01-21T00:18:14.460Z,39.07
2019-01-21T00:20:42.735Z,38.84
2019-01-21T00:23:10.464Z,38.51
2019-01-21T00:25:38.467Z,39.17
2019-01-21T00:28:06.747Z,38.71
2019-01-21T00:30:34.474Z,38.44
2019-01-21T00:33:02.467Z,38.65
2019-01-21T00:35:30.183Z,38.54
2019-01-21T00:37:57.903Z,38.57
2019-01-21T00:40:25.638Z,37.91
2019-01-21T00:42:53.843Z,38.47
2019-01-21T00:45:21.846Z,38.74
2019-01-21T00:47:49.564Z,38.44
2019-01-21T00:50:17.638Z,38.46
2019-01-21T00:52:45.361Z,37.81
2019-01-21T00:55:13.167Z,37.68
2019-01-21T00:57:41.319Z,37.94
2019-01-21T01:00:13.812Z,37.84
2019-01-21T01:02:42.526Z,37.47
2019-01-21T01:05:11.035Z,38.01
2019-01-21T01:07:38.867Z,37.51
2019-01-21T01:10:07.023Z,37.88
2019-01-21T01:12:35.006Z,37.50
2019-01-21T01:15:03.015Z,37.94
2019-01-21T01:17:37.161Z,38.15
2019-01-21T01:20:00.955Z,37.65
2019-01-21T01:22:28.687Z,37.74
2019-01-21T01:24:56.708Z,37.87
2019-01-21T01:27:25.075Z,37.52
2019-01-21T01:29:53.025Z,37.65
2019-01-21T01:32:20.767Z,37.71
2019-01-21T01:34:49.087Z,37.88
2019-01-21T01:37:16.798Z,37.85
2019-01-21T01:39:44.518Z,37.74
2019-01-21T01:42:12.720Z,37.08
2019-01-21T01:44:40.814Z,37.22
2019-01-21T01:47:08.647Z,37.29
2019-01-21T01:49:37.110Z,37.35
2019-01-21T01:52:05.122Z,37.02
2019-01-21T01:54:33.188Z,37.28
2019-01-21T01:57:00.980Z,36.94
2019-01-21T01:59:28.708Z,37.03
2019-01-21T02:01:56.471Z,36.78
2019-01-21T02:04:24.434Z,36.53
2019-01-21T02:06:52.331Z,36.60
2019-01-21T02:09:20.531Z,36.96
2019-01-21T02:11:48.257Z,37.05
2019-01-21T02:14:15.979Z,36.59
2019-01-21T02:16:44.278Z,36.80
2019-01-21T02:19:11.991Z,36.95
2019-01-21T02:21:39.967Z,38.07
2019-01-21T02:24:08.582Z,37.23
2019-01-21T02:26:55.614Z,37.24
2019-01-21T02:29:31.463Z,36.72
2019-01-21T02:32:19.340Z,36.76
2019-01-21T02:35:06.643Z,36.68
2019-01-21T02:37:37.522Z,36.88
2019-01-21T03:00:12.244Z,36.67
2019-01-21T03:03:13.800Z,36.51
2019-01-21T03:06:12.654Z,36.48
2019-01-21T03:09:11.091Z,36.49
2019-01-21T03:12:09.464Z,36.70
2019-01-21T03:15:13.861Z,36.69
2019-01-21T03:18:09.432Z,36.59
2019-01-21T03:21:14.175Z,36.74
2019-01-21T03:27:20.220Z,36.79
2019-01-21T03:40:07.723Z,36.84
2019-01-21T03:43:09.479Z,36.23
2019-01-21T03:46:08.337Z,36.36
2019-01-21T04:10:41.131Z,36.33
2019-01-21T04:13:16.967Z,36.36
2019-01-21T04:16:02.850Z,35.83
2019-01-21T04:18:38.951Z,35.94
2019-01-21T04:21:25.047Z,36.01
2019-01-21T04:24:18.421Z,36.25
2019-01-21T04:27:08.955Z,35.97
2019-01-21T04:30:03.384Z,36.48
2019-01-21T04:32:41.196Z,36.91
2019-01-21T04:35:16.217Z,36.58
2019-01-21T04:38:12.613Z,36.27
2019-01-21T04:40:43.975Z,36.70
2019-01-21T04:43:18.771Z,36.47
2019-01-21T04:46:05.999Z,36.69
2019-01-21T04:48:47.025Z,35.91
2019-01-21T04:51:52.487Z,35.94
2019-01-21T04:54:43.683Z,35.91
2019-01-21T04:57:29.120Z,36.30
2019-01-21T05:00:19.329Z,35.85
2019-01-21T05:03:24.449Z,35.74
2019-01-21T05:05:58.893Z,36.05
2019-01-21T05:08:45.290Z,36.72
2019-01-21T05:11:44.779Z,35.84
2019-01-21T05:14:44.417Z,35.66
2019-01-21T05:17:34.505Z,35.58
2019-01-21T05:20:11.091Z,36.25
2019-01-21T05:22:46.107Z,35.44
2019-01-21T05:25:16.792Z,35.14
2019-01-21T05:28:03.098Z,36.73
2019-01-21T05:30:35.788Z,36.03
2019-01-21T05:33:07.503Z,36.14
2019-01-21T05:36:09.864Z,36.98
2019-01-21T05:38:45.794Z,36.68
2019-01-21T05:41:17.467Z,35.03
2019-01-21T05:43:53.606Z,33.21
2019-01-21T05:46:52.643Z,32.91
2019-01-21T05:49:28.808Z,32.75
2019-01-21T05:52:25.131Z,32.69
2019-01-21T05:55:30.470Z,33.01
2019-01-21T05:58:08.902Z,32.96
2019-01-21T06:00:55.763Z,32.12
2019-01-21T06:03:41.523Z,32.41
2019-01-21T06:06:27.687Z,31.94
2019-01-21T06:09:13.567Z,32.06
2019-01-21T06:12:13.193Z,32.71
2019-01-21T06:14:59.690Z,32.02
2019-01-21T06:17:56.732Z,31.80
2019-01-21T06:21:02.337Z,31.63
2019-01-21T06:23:39.706Z,30.94
2019-01-21T06:26:25.675Z,31.19
2019-01-21T06:29:18.147Z,30.99
2019-01-21T06:32:00.975Z,31.20
2019-01-21T06:34:46.847Z,30.95
2019-01-21T06:37:20.938Z,31.05
2019-01-21T06:39:53.718Z,30.73
2019-01-21T06:42:26.388Z,30.60
2019-01-21T06:45:01.190Z,30.34
2019-01-21T06:47:51.330Z,31.14
2019-01-21T06:50:24.339Z,30.41
2019-01-21T06:53:20.787Z,29.94
2019-01-21T06:56:07.859Z,30.58
2019-01-21T06:58:44.618Z,31.01
2019-01-21T07:01:33.344Z,31.08
2019-01-21T07:04:18.970Z,31.15
2019-01-21T07:07:01.236Z,31.09
2019-01-21T07:09:48.520Z,30.82
2019-01-21T07:12:18.522Z,31.29
2019-01-21T07:15:11.897Z,31.98
2019-01-21T07:17:53.355Z,33.08
2019-01-21T07:20:34.663Z,33.35
2019-01-21T07:23:27.515Z,33.17
2019-01-21T07:26:14.419Z,32.66
2019-01-21T07:29:00.427Z,31.87
2019-01-21T07:31:46.714Z,31.61
2019-01-21T07:34:32.683Z,31.95
2019-01-21T07:37:15.522Z,33.08
2019-01-21T07:40:18.520Z,34.61
2019-01-21T07:43:00.340Z,35.62
2019-01-21T07:45:43.811Z,35.77
2019-01-21T07:48:20.675Z,35.85
2019-01-21T07:50:53.092Z,35.70
2019-01-21T07:53:45.317Z,35.64
2019-01-21T07:56:26.803Z,35.78
2019-01-21T07:59:20.230Z,35.37
2019-01-21T08:02:00.263Z,35.26
2019-01-21T08:04:35.887Z,35.25
2019-01-21T08:07:22.350Z,35.21
2019-01-21T08:10:02.640Z,35.55
2019-01-21T08:12:55.994Z,35.61
2019-01-21T08:15:29.547Z,35.53
2019-01-21T08:18:15.275Z,35.70
2019-01-21T08:20:52.795Z,35.73
2019-01-21T08:23:31.203Z,35.84
2019-01-21T08:26:03.394Z,36.13
2019-01-21T08:28:50.407Z,36.16
2019-01-21T08:31:43.529Z,36.18
2019-01-21T08:34:28.270Z,36.23
2019-01-21T08:37:03.350Z,36.13
2019-01-21T08:39:36.246Z,36.30
2019-01-21T08:42:22.446Z,36.21
2019-01-21T08:45:08.394Z,36.17
2019-01-21T08:47:55.962Z,35.97
2019-01-21T08:50:27.223Z,36.72
2019-01-21T08:53:07.939Z,37.08
2019-01-21T08:55:53.963Z,37.06
2019-01-21T08:58:39.975Z,37.10
2019-01-21T09:01:23.819Z,37.13
2019-01-21T09:03:55.571Z,37.18
2019-01-21T09:06:33.587Z,37.13
2019-01-21T09:09:20.826Z,37.21
2019-01-21T09:11:53.263Z,37.23
2019-01-21T09:14:28.663Z,37.30
2019-01-21T09:17:15.410Z,37.35
2019-01-21T09:19:56.807Z,37.40
2019-01-21T09:22:37.398Z,37.37
2019-01-21T09:25:15.484Z,37.40
2019-01-21T09:28:01.125Z,37.37
2019-01-21T09:30:41.987Z,37.33
2019-01-21T09:33:17.142Z,37.12
2019-01-21T09:36:03.488Z,36.86
2019-01-21T09:38:47.280Z,36.09
2019-01-21T09:41:26.910Z,36.45
2019-01-21T09:44:00.190Z,36.20
2019-01-21T09:46:46.151Z,36.56
2019-01-21T09:49:13.282Z,36.40
2019-01-21T09:51:41.673Z,36.30
2019-01-21T09:54:09.418Z,36.44
2019-01-21T09:56:37.806Z,36.25
2019-01-21T09:59:05.530Z,36.24
2019-01-21T10:01:33.453Z,36.46
2019-01-21T10:04:01.538Z,36.49
2019-01-21T10:06:35.658Z,36.79
2019-01-21T10:09:19.102Z,37.13
2019-01-21T10:12:05.299Z,37.69
2019-01-21T10:14:46.499Z,37.78
2019-01-21T10:17:18.210Z,37.81
2019-01-21T10:19:53.150Z,37.86
2019-01-21T10:22:25.810Z,37.83
2019-01-21T10:25:17.555Z,37.90
2019-01-21T10:28:08.050Z,37.83
2019-01-21T10:30:47.559Z,37.87
2019-01-21T10:33:32.572Z,37.79
2019-01-21T10:36:19.619Z,37.59
2019-01-21T10:38:53.551Z,37.68
2019-01-21T10:41:40.560Z,37.43
2019-01-21T10:44:36.822Z,37.21
2019-01-21T10:47:13.600Z,37.22
2019-01-21T10:49:59.395Z,37.12
2019-01-21T10:52:55.590Z,36.88
2019-01-21T10:55:41.715Z,36.75
2019-01-21T10:58:15.691Z,36.36
2019-01-21T11:01:01.350Z,36.46
2019-01-21T11:03:41.819Z,36.25
2019-01-21T11:06:31.287Z,36.01
2019-01-21T11:09:13.367Z,36.08
2019-01-21T11:11:54.091Z,36.24
2019-01-21T11:14:39.303Z,35.97
2019-01-21T11:17:24.934Z,36.20
2019-01-21T11:20:18.019Z,36.45
2019-01-21T11:23:03.772Z,37.19
2019-01-21T11:25:40.868Z,37.70
2019-01-21T11:28:11.883Z,38.11
2019-01-21T11:30:57.696Z,38.23
2019-01-21T11:33:38.626Z,38.20
2019-01-21T11:36:26.073Z,38.19
2019-01-21T11:38:58.119Z,38.09
2019-01-21T11:41:39.334Z,38.00
2019-01-21T11:44:29.212Z,37.88
2019-01-21T11:47:16.223Z,38.18
2019-01-21T11:49:46.854Z,38.05
2019-01-21T11:52:18.302Z,37.90
2019-01-21T11:55:03.034Z,37.21
2019-01-21T11:57:41.215Z,37.37
2019-01-21T12:00:14.679Z,36.99
2019-01-21T12:02:51.947Z,36.87
2019-01-21T12:05:37.533Z,36.69
2019-01-21T12:08:23.299Z,36.74
2019-01-21T12:11:09.279Z,36.73
2019-01-21T12:13:56.270Z,36.92
2019-01-21T12:16:52.154Z,36.83
2019-01-21T12:19:39.338Z,36.73
2019-01-21T12:22:19.536Z,36.72
2019-01-21T12:24:50.675Z,36.68
2019-01-21T12:27:23.470Z,36.50
2019-01-21T12:30:19.782Z,36.63
2019-01-21T12:32:59.109Z,36.31
2019-01-21T12:35:31.726Z,36.05
2019-01-21T12:38:30.902Z,36.34
2019-01-21T12:41:23.998Z,36.77
2019-01-21T12:44:07.195Z,37.24
2019-01-21T12:46:40.960Z,37.57
2019-01-21T12:49:26.804Z,37.40
2019-01-21T12:52:09.892Z,37.53
2019-01-21T12:54:50.683Z,37.35
2019-01-21T12:57:29.667Z,37.41
2019-01-21T13:00:12.082Z,37.59
2019-01-21T13:02:50.224Z,37.37
2019-01-21T13:05:28.958Z,37.30
2019-01-21T13:08:22.051Z,37.11
2019-01-21T13:11:09.058Z,36.72
2019-01-21T13:13:56.337Z,36.21
2019-01-21T13:16:58.847Z,36.30
2019-01-21T13:19:48.503Z,36.52
2019-01-21T13:22:26.287Z,36.60
2019-01-21T13:25:14.760Z,36.78
2019-01-21T13:27:56.559Z,36.72
2019-01-21T13:30:39.556Z,36.60
2019-01-21T13:33:17.774Z,36.53
2019-01-21T13:35:53.130Z,36.52
2019-01-21T13:38:38.879Z,36.60
2019-01-21T13:41:25.892Z,36.65
2019-01-21T13:44:16.954Z,36.70
2019-01-21T13:47:22.411Z,36.53
2019-01-21T13:49:53.357Z,36.70
2019-01-21T13:52:28.459Z,37.04
2019-01-21T13:55:24.631Z,36.16
2019-01-21T13:58:20.534Z,36.54
2019-01-21T14:01:00.475Z,36.57
2019-01-21T14:03:41.558Z,36.44
2019-01-21T14:06:19.111Z,36.49
2019-01-21T14:09:12.230Z,36.33
2019-01-21T14:11:52.534Z,36.62
2019-01-21T14:14:26.307Z,36.47
2019-01-21T14:16:57.763Z,36.85
2019-01-21T14:19:44.992Z,36.87
2019-01-21T14:22:29.747Z,37.06
2019-01-21T14:25:19.749Z,36.90
2019-01-21T14:28:04.874Z,36.92
2019-01-21T14:30:50.799Z,36.87
2019-01-21T14:33:26.335Z,36.67
2019-01-21T14:36:13.811Z,36.57
2019-01-21T14:38:54.363Z,36.79
2019-01-21T14:41:40.219Z,36.93
2019-01-21T14:44:36.357Z,36.43
2019-01-21T14:47:16.316Z,36.83
2019-01-21T14:50:06.743Z,36.51
2019-01-21T14:52:48.972Z,36.70
2019-01-21T14:55:24.518Z,36.92
2019-01-21T14:57:57.300Z,36.35
2019-01-21T15:00:44.822Z,36.69
2019-01-21T15:03:23.758Z,36.99
2019-01-21T15:06:17.024Z,36.95
2019-01-21T15:09:05.866Z,36.97
2019-01-21T15:11:41.895Z,36.94
2019-01-21T15:14:35.116Z,37.17
2019-01-21T15:17:09.975Z,37.25
2019-01-21T15:19:55.682Z,37.02
2019-01-21T15:22:31.696Z,36.65
2019-01-21T15:25:20.523Z,36.71
2019-01-21T15:28:06.443Z,36.82
2019-01-21T15:30:52.336Z,37.19
2019-01-21T15:33:25.397Z,37.84
2019-01-21T15:36:22.030Z,37.37
2019-01-21T15:39:14.935Z,37.70
2019-01-21T15:41:53.097Z,37.39
2019-01-21T15:44:27.406Z,37.33
2019-01-21T15:47:17.912Z,37.50
2019-01-21T15:49:51.463Z,37.06
2019-01-21T15:52:25.207Z,36.62
2019-01-21T15:55:00.223Z,36.54
2019-01-21T15:57:33.422Z,36.68
2019-01-21T16:00:19.630Z,37.05
2019-01-21T16:03:04.932Z,36.58
2019-01-21T16:06:04.052Z,36.87
2019-01-21T16:08:48.672Z,36.79
2019-01-21T16:11:38.731Z,36.78
2019-01-21T16:14:08.835Z,36.90
2019-01-21T16:16:39.376Z,36.70
2019-01-21T16:19:17.651Z,36.57
2019-01-21T16:22:08.908Z,36.61
2019-01-21T16:24:49.487Z,36.76
2019-01-21T16:27:20.646Z,36.69
2019-01-21T16:30:00.007Z,36.74
2019-01-21T16:32:33.191Z,36.67
2019-01-21T16:35:08.970Z,36.75
2019-01-21T16:37:41.068Z,36.85
2019-01-21T16:40:31.093Z,37.72
2019-01-21T16:42:59.092Z,38.30
2019-01-21T16:45:26.826Z,38.00
2019-01-21T16:47:54.779Z,38.39
2019-01-21T16:50:22.495Z,38.27
2019-01-21T16:52:50.484Z,38.06
2019-01-21T16:55:18.199Z,38.12
2019-01-21T16:57:46.181Z,38.10
2019-01-21T17:00:14.140Z,37.56
2019-01-21T17:02:41.847Z,37.45
2019-01-21T17:05:09.611Z,37.21
2019-01-21T17:07:37.329Z,37.35
2019-01-21T17:10:05.483Z,36.89
2019-01-21T17:12:33.202Z,36.54
2019-01-21T17:15:01.155Z,36.96
2019-01-21T17:17:31.333Z,37.16
2019-01-21T17:19:58.763Z,37.02
2019-01-21T17:22:26.959Z,37.15
2019-01-21T17:24:54.727Z,36.82
2019-01-21T17:27:25.370Z,36.81
2019-01-21T17:29:53.074Z,36.95
2019-01-21T17:32:20.860Z,37.17
2019-01-21T17:34:48.810Z,37.37
2019-01-21T17:37:16.768Z,37.16
2019-01-21T17:39:45.091Z,37.36
2019-01-21T17:42:12.966Z,37.45
2019-01-21T17:44:40.782Z,37.24
2019-01-21T17:47:08.591Z,37.69
2019-01-21T17:49:36.353Z,37.66
2019-01-21T17:52:06.759Z,37.76
2019-01-21T17:54:36.591Z,37.61
2019-01-21T17:57:04.809Z,37.34
2019-01-21T17:59:32.815Z,37.11
2019-01-21T18:02:00.901Z,37.36
2019-01-21T18:04:29.054Z,38.22
2019-01-21T18:06:56.783Z,37.68
2019-01-21T18:09:25.107Z,38.29
2019-01-21T18:11:52.843Z,38.79
2019-01-21T18:14:20.555Z,38.68
2019-01-21T18:16:48.510Z,38.58
2019-01-21T18:19:16.231Z,38.20
2019-01-21T18:21:44.162Z,38.27
2019-01-21T18:24:11.891Z,37.85
2019-01-21T18:26:39.599Z,38.09
2019-01-21T18:29:07.568Z,38.13
2019-01-21T18:31:35.510Z,38.04
2019-01-21T18:34:03.236Z,37.80
2019-01-21T18:36:31.202Z,37.54
2019-01-21T18:38:58.903Z,36.92
2019-01-21T18:41:26.618Z,37.19
2019-01-21T18:43:54.335Z,37.52
2019-01-21T18:46:22.062Z,37.52
2019-01-21T18:48:49.778Z,37.76
2019-01-21T18:51:18.059Z,37.68
2019-01-21T18:53:46.007Z,37.73
2019-01-21T18:56:13.971Z,37.46
2019-01-21T18:58:41.923Z,37.48
2019-01-21T19:01:09.646Z,37.31
2019-01-21T19:03:37.352Z,37.06
2019-01-21T19:06:05.363Z,37.78
2019-01-21T19:08:33.060Z,37.43
2019-01-21T19:11:01.088Z,37.58
2019-01-21T19:13:28.834Z,37.35
2019-01-21T19:15:59.862Z,37.49
2019-01-21T19:18:29.766Z,37.42
2019-01-21T19:20:58.083Z,37.25
2019-01-21T19:23:26.452Z,37.59
2019-01-21T19:25:54.271Z,38.00
2019-01-21T19:28:22.000Z,38.34
2019-01-21T19:30:49.735Z,38.54
2019-01-21T19:33:17.486Z,38.45
2019-01-21T19:35:45.603Z,38.66
2019-01-21T19:38:13.718Z,38.52
2019-01-21T19:40:41.738Z,38.56
2019-01-21T19:43:09.482Z,38.28
2019-01-21T19:45:37.215Z,38.38
2019-01-21T19:48:05.213Z,38.14
2019-01-21T19:50:32.935Z,37.99
2019-01-21T19:53:00.683Z,37.71
2019-01-21T19:55:33.335Z,37.55
2019-01-21T19:58:01.278Z,37.53
2019-01-21T20:00:29.295Z,38.29
2019-01-21T20:02:57.636Z,37.57
2019-01-21T20:05:25.542Z,37.82
2019-01-21T20:07:53.672Z,38.02
2019-01-21T20:10:22.318Z,37.74
2019-01-21T20:12:50.031Z,37.92
2019-01-21T20:15:18.148Z,37.66
2019-01-21T20:17:45.879Z,37.96
2019-01-21T20:20:15.263Z,37.77
2019-01-21T20:22:43.574Z,37.92
2019-01-21T20:25:11.302Z,38.02
2019-01-21T20:27:39.278Z,37.91
2019-01-21T20:30:07.763Z,38.09
2019-01-21T20:32:35.683Z,37.92
2019-01-21T20:35:03.395Z,37.97
2019-01-21T20:37:31.366Z,37.87
2019-01-21T20:39:59.429Z,37.76
2019-01-21T20:42:27.519Z,37.62
2019-01-21T20:44:55.378Z,37.71
2019-01-21T20:47:23.324Z,37.54
2019-01-21T20:49:51.426Z,37.49
2019-01-21T20:52:19.315Z,38.08
2019-01-21T20:54:47.062Z,38.07
2019-01-21T20:57:15.621Z,38.01
2019-01-21T20:59:43.322Z,37.89
2019-01-21T21:02:11.432Z,37.87
2019-01-21T21:04:39.273Z,37.76
2019-01-21T21:07:07.106Z,37.68
2019-01-21T21:09:34.991Z,37.80
2019-01-21T21:12:02.906Z,37.70
2019-01-21T21:14:31.359Z,37.80
2019-01-21T21:16:59.234Z,37.83
2019-01-21T21:19:27.085Z,37.30
2019-01-21T21:21:55.232Z,37.22
2019-01-21T21:24:23.154Z,37.49
2019-01-21T21:26:51.657Z,37.33
2019-01-21T21:29:20.192Z,37.36
2019-01-21T21:31:48.687Z,37.80
2019-01-21T21:34:17.092Z,37.79
2019-01-21T21:36:45.086Z,37.58
2019-01-21T21:39:14.367Z,37.57
2019-01-21T21:41:42.244Z,37.71
2019-01-21T21:44:10.720Z,37.56
2019-01-21T21:46:38.593Z,37.97
2019-01-21T21:49:06.747Z,37.74
2019-01-21T21:51:34.862Z,37.43
2019-01-21T21:54:02.970Z,37.54
2019-01-21T21:56:30.891Z,37.42
2019-01-21T21:58:59.042Z,37.43
2019-01-21T22:01:27.258Z,37.57
2019-01-21T22:03:55.106Z,37.32
2019-01-21T22:06:22.960Z,37.82
2019-01-21T22:08:51.715Z,37.75
2019-01-21T22:11:19.686Z,37.73
2019-01-21T22:13:47.603Z,37.78
2019-01-21T22:16:15.654Z,37.81
2019-01-21T22:18:43.637Z,37.71
2019-01-21T22:21:11.683Z,38.23
2019-01-21T22:23:39.678Z,38.36
2019-01-21T22:26:07.677Z,38.93
2019-01-21T22:28:35.579Z,38.93
2019-01-21T22:31:03.310Z,38.79
2019-01-21T22:33:31.883Z,37.96
2019-01-21T22:35:59.826Z,37.90
2019-01-21T22:38:27.598Z,37.86
2019-01-21T22:40:55.360Z,38.04
2019-01-21T22:43:23.515Z,38.13
2019-01-21T22:45:51.243Z,38.90
2019-01-21T22:48:19.052Z,39.19
2019-01-21T22:50:46.783Z,39.16
2019-01-21T22:53:15.043Z,39.23
2019-01-21T22:55:43.219Z,39.19
2019-01-21T22:58:11.187Z,39.21
2019-01-21T23:00:42.095Z,39.19
2019-01-21T23:03:10.133Z,39.20
2019-01-21T23:05:37.926Z,39.13
2019-01-21T23:08:06.490Z,39.15
2019-01-21T23:10:34.640Z,39.15
2019-01-21T23:13:02.346Z,39.12
2019-01-21T23:15:30.047Z,39.01
2019-01-21T23:17:57.811Z,38.98
2019-01-21T23:20:25.559Z,38.94
2019-01-21T23:22:53.359Z,38.89
2019-01-21T23:25:21.347Z,38.73
2019-01-21T23:27:49.058Z,38.77
2019-01-21T23:30:16.782Z,38.44
2019-01-21T23:32:44.575Z,38.29
2019-01-21T23:35:12.374Z,38.74
2019-01-21T23:37:40.110Z,38.43
2019-01-21T23:40:08.452Z,38.35
2019-01-21T23:42:36.262Z,38.09
2019-01-21T23:45:04.495Z,38.04
2019-01-21T23:47:32.409Z,38.26
2019-01-21T23:50:00.208Z,38.39
2019-01-21T23:52:28.293Z,38.83
2019-01-21T23:54:56.406Z,38.96
2019-01-21T23:57:24.230Z,39.08
2019-01-21T23:59:52.047Z,39.25
